sensor_id;sensor_type;location;lat;lon;timestamp;P1;durP1;ratioP1;P2;durP2;ratioP2
22768;SDS011;13001;51.968;5.918;2023-05-08T00:02:03;345.27;;;323.27;;
22768;SDS011;13001;51.968;5.918;2023-05-08T00:04:31;349.32;;;327.00;;
22768;SDS011;13001;51.968;5.918;2023-05-08T00:06:58;351.92;;;329.45;;
22768;SDS011;13001;51.968;5.918;2023-05-08T00:09:25;342.98;;;321.10;;
22768;SDS011;13001;51.968;5.918;2023-05-08T00:11:52;333.87;;;312.60;;
22768;SDS011;13001;51.968;5.918;2023-05-08T00:14:20;353.83;;;330.85;;
22768;SDS011;13001;51.968;5.918;2023-05-08T00:16:47;396.65;;;370.70;;
22768;SDS011;13001;51.968;5.918;2023-05-08T00:19:14;328.70;;;307.45;;
22768;SDS011;13001;51.968;5.918;2023-05-08T00:21:41;373.27;;;349.05;;
22768;SDS011;13001;51.968;5.918;2023-05-08T00:24:09;384.10;;;359.07;;
22768;SDS011;13001;51.968;5.918;2023-05-08T00:26:36;389.27;;;363.90;;
22768;SDS011;13001;51.968;5.918;2023-05-08T00:29:03;383.00;;;357.87;;
22768;SDS011;13001;51.968;5.918;2023-05-08T00:31:30;379.45;;;354.38;;
22768;SDS011;13001;51.968;5.918;2023-05-08T00:33:58;399.15;;;372.95;;
22768;SDS011;13001;51.968;5.918;2023-05-08T00:36:25;386.45;;;361.10;;
22768;SDS011;13001;51.968;5.918;2023-05-08T00:38:52;404.35;;;377.40;;
22768;SDS011;13001;51.968;5.918;2023-05-08T00:41:20;382.83;;;357.77;;
22768;SDS011;13001;51.968;5.918;2023-05-08T00:43:47;378.18;;;353.30;;
22768;SDS011;13001;51.968;5.918;2023-05-08T00:46:14;401.15;;;374.98;;
22768;SDS011;13001;51.968;5.918;2023-05-08T00:48:42;392.03;;;366.63;;
22768;SDS011;13001;51.968;5.918;2023-05-08T00:51:10;372.90;;;348.43;;
22768;SDS011;13001;51.968;5.918;2023-05-08T00:53:38;339.00;;;316.80;;
22768;SDS011;13001;51.968;5.918;2023-05-08T00:56:06;349.88;;;327.32;;
22768;SDS011;13001;51.968;5.918;2023-05-08T00:58:34;363.77;;;340.37;;
22768;SDS011;13001;51.968;5.918;2023-05-08T01:01:02;372.25;;;347.95;;
22768;SDS011;13001;51.968;5.918;2023-05-08T01:03:29;389.07;;;363.87;;
22768;SDS011;13001;51.968;5.918;2023-05-08T01:05:59;404.45;;;378.23;;
22768;SDS011;13001;51.968;5.918;2023-05-08T01:08:26;414.25;;;387.45;;
22768;SDS011;13001;51.968;5.918;2023-05-08T01:16:13;449.18;;;418.80;;
22768;SDS011;13001;51.968;5.918;2023-05-08T01:18:36;458.20;;;427.47;;
22768;SDS011;13001;51.968;5.918;2023-05-08T01:21:15;453.88;;;423.17;;
22768;SDS011;13001;51.968;5.918;2023-05-08T01:26:30;469.23;;;437.63;;
22768;SDS011;13001;51.968;5.918;2023-05-08T01:34:16;461.47;;;431.05;;
22768;SDS011;13001;51.968;5.918;2023-05-08T01:36:39;462.12;;;431.25;;
22768;SDS011;13001;51.968;5.918;2023-05-08T01:41:56;445.80;;;416.90;;
22768;SDS011;13001;51.968;5.918;2023-05-08T01:44:21;450.77;;;421.33;;
22768;SDS011;13001;51.968;5.918;2023-05-08T01:46:50;458.07;;;428.07;;
22768;SDS011;13001;51.968;5.918;2023-05-08T01:49:22;455.70;;;425.87;;
22768;SDS011;13001;51.968;5.918;2023-05-08T01:51:58;465.02;;;434.60;;
22768;SDS011;13001;51.968;5.918;2023-05-08T01:54:26;457.68;;;427.75;;
22768;SDS011;13001;51.968;5.918;2023-05-08T01:56:55;467.27;;;436.82;;
22768;SDS011;13001;51.968;5.918;2023-05-08T01:59:23;446.53;;;417.55;;
22768;SDS011;13001;51.968;5.918;2023-05-08T02:01:54;436.47;;;408.18;;
22768;SDS011;13001;51.968;5.918;2023-05-08T02:04:24;418.35;;;391.77;;
22768;SDS011;13001;51.968;5.918;2023-05-08T02:06:52;424.70;;;397.40;;
22768;SDS011;13001;51.968;5.918;2023-05-08T02:09:21;446.72;;;418.20;;
22768;SDS011;13001;51.968;5.918;2023-05-08T02:11:51;454.65;;;425.05;;
22768;SDS011;13001;51.968;5.918;2023-05-08T02:14:19;464.10;;;433.50;;
22768;SDS011;13001;51.968;5.918;2023-05-08T02:16:47;460.67;;;430.20;;
22768;SDS011;13001;51.968;5.918;2023-05-08T02:19:15;462.08;;;431.63;;
22768;SDS011;13001;51.968;5.918;2023-05-08T02:21:43;467.95;;;437.30;;
22768;SDS011;13001;51.968;5.918;2023-05-08T02:24:11;454.12;;;424.62;;
22768;SDS011;13001;51.968;5.918;2023-05-08T02:26:40;442.10;;;413.60;;
22768;SDS011;13001;51.968;5.918;2023-05-08T02:29:08;416.65;;;389.93;;
22768;SDS011;13001;51.968;5.918;2023-05-08T02:31:36;422.95;;;395.77;;
22768;SDS011;13001;51.968;5.918;2023-05-08T02:34:04;422.23;;;395.42;;
22768;SDS011;13001;51.968;5.918;2023-05-08T02:36:31;406.40;;;380.48;;
22768;SDS011;13001;51.968;5.918;2023-05-08T02:38:59;439.07;;;410.80;;
22768;SDS011;13001;51.968;5.918;2023-05-08T02:41:29;452.60;;;423.20;;
22768;SDS011;13001;51.968;5.918;2023-05-08T02:43:57;466.80;;;436.30;;
22768;SDS011;13001;51.968;5.918;2023-05-08T02:46:24;460.23;;;430.20;;
22768;SDS011;13001;51.968;5.918;2023-05-08T02:51:32;424.57;;;396.70;;
22768;SDS011;13001;51.968;5.918;2023-05-08T02:54:03;405.45;;;379.32;;
22768;SDS011;13001;51.968;5.918;2023-05-08T02:56:39;411.98;;;386.20;;
22768;SDS011;13001;51.968;5.918;2023-05-08T02:59:13;405.05;;;379.65;;
22768;SDS011;13001;51.968;5.918;2023-05-08T03:01:47;406.97;;;381.60;;
22768;SDS011;13001;51.968;5.918;2023-05-08T03:04:16;406.15;;;380.92;;
22768;SDS011;13001;51.968;5.918;2023-05-08T03:06:44;403.23;;;377.73;;
22768;SDS011;13001;51.968;5.918;2023-05-08T03:09:12;411.53;;;385.40;;
22768;SDS011;13001;51.968;5.918;2023-05-08T03:11:40;411.50;;;385.13;;
22768;SDS011;13001;51.968;5.918;2023-05-08T03:14:09;419.15;;;392.32;;
22768;SDS011;13001;51.968;5.918;2023-05-08T03:16:37;416.83;;;389.83;;
22768;SDS011;13001;51.968;5.918;2023-05-08T03:19:06;419.95;;;392.45;;
22768;SDS011;13001;51.968;5.918;2023-05-08T03:21:34;422.15;;;394.30;;
22768;SDS011;13001;51.968;5.918;2023-05-08T03:24:02;436.02;;;406.67;;
22768;SDS011;13001;51.968;5.918;2023-05-08T03:26:31;437.72;;;408.10;;
22768;SDS011;13001;51.968;5.918;2023-05-08T03:28:59;426.93;;;398.13;;
22768;SDS011;13001;51.968;5.918;2023-05-08T03:31:26;423.03;;;394.67;;
22768;SDS011;13001;51.968;5.918;2023-05-08T03:33:54;421.45;;;393.58;;
22768;SDS011;13001;51.968;5.918;2023-05-08T03:36:22;434.00;;;405.00;;
22768;SDS011;13001;51.968;5.918;2023-05-08T03:38:52;434.48;;;405.87;;
22768;SDS011;13001;51.968;5.918;2023-05-08T03:41:19;444.88;;;414.85;;
22768;SDS011;13001;51.968;5.918;2023-05-08T03:43:46;452.03;;;421.30;;
22768;SDS011;13001;51.968;5.918;2023-05-08T03:46:14;443.17;;;413.40;;
22768;SDS011;13001;51.968;5.918;2023-05-08T03:48:42;456.57;;;425.57;;
22768;SDS011;13001;51.968;5.918;2023-05-08T03:51:10;455.55;;;424.60;;
22768;SDS011;13001;51.968;5.918;2023-05-08T03:53:38;472.27;;;440.73;;
22768;SDS011;13001;51.968;5.918;2023-05-08T03:56:05;469.28;;;438.33;;
22768;SDS011;13001;51.968;5.918;2023-05-08T04:03:55;470.15;;;438.98;;
22768;SDS011;13001;51.968;5.918;2023-05-08T04:06:31;468.80;;;437.62;;
22768;SDS011;13001;51.968;5.918;2023-05-08T04:09:02;466.80;;;435.43;;
22768;SDS011;13001;51.968;5.918;2023-05-08T04:11:41;458.37;;;427.87;;
22768;SDS011;13001;51.968;5.918;2023-05-08T04:14:04;476.00;;;444.47;;
22768;SDS011;13001;51.968;5.918;2023-05-08T04:16:36;467.57;;;436.10;;
22768;SDS011;13001;51.968;5.918;2023-05-08T04:19:05;468.10;;;436.52;;
22768;SDS011;13001;51.968;5.918;2023-05-08T04:21:33;474.80;;;442.90;;
22768;SDS011;13001;51.968;5.918;2023-05-08T04:24:00;468.87;;;437.85;;
22768;SDS011;13001;51.968;5.918;2023-05-08T04:26:28;471.90;;;440.30;;
22768;SDS011;13001;51.968;5.918;2023-05-08T04:28:55;478.45;;;446.85;;
22768;SDS011;13001;51.968;5.918;2023-05-08T04:31:23;470.05;;;439.43;;
22768;SDS011;13001;51.968;5.918;2023-05-08T04:33:52;466.75;;;436.52;;
22768;SDS011;13001;51.968;5.918;2023-05-08T04:36:20;445.27;;;416.77;;
22768;SDS011;13001;51.968;5.918;2023-05-08T04:38:49;426.48;;;399.10;;
22768;SDS011;13001;51.968;5.918;2023-05-08T04:41:16;408.40;;;382.12;;
22768;SDS011;13001;51.968;5.918;2023-05-08T04:43:43;394.75;;;369.37;;
22768;SDS011;13001;51.968;5.918;2023-05-08T04:46:10;389.50;;;364.42;;
22768;SDS011;13001;51.968;5.918;2023-05-08T04:48:38;373.63;;;349.97;;
22768;SDS011;13001;51.968;5.918;2023-05-08T04:51:05;387.10;;;362.38;;
22768;SDS011;13001;51.968;5.918;2023-05-08T04:53:32;368.48;;;345.17;;
22768;SDS011;13001;51.968;5.918;2023-05-08T04:56:00;359.98;;;337.48;;
22768;SDS011;13001;51.968;5.918;2023-05-08T04:58:27;365.77;;;342.73;;
22768;SDS011;13001;51.968;5.918;2023-05-08T05:00:54;338.47;;;316.90;;
22768;SDS011;13001;51.968;5.918;2023-05-08T05:03:21;305.52;;;286.37;;
22768;SDS011;13001;51.968;5.918;2023-05-08T05:05:55;301.80;;;282.45;;
22768;SDS011;13001;51.968;5.918;2023-05-08T05:08:17;282.95;;;264.77;;
22768;SDS011;13001;51.968;5.918;2023-05-08T05:10:45;287.48;;;269.23;;
22768;SDS011;13001;51.968;5.918;2023-05-08T05:13:12;288.23;;;269.57;;
22768;SDS011;13001;51.968;5.918;2023-05-08T05:15:41;289.27;;;270.37;;
22768;SDS011;13001;51.968;5.918;2023-05-08T05:18:08;312.55;;;291.98;;
22768;SDS011;13001;51.968;5.918;2023-05-08T05:20:35;326.52;;;305.12;;
22768;SDS011;13001;51.968;5.918;2023-05-08T05:23:03;324.77;;;303.40;;
22768;SDS011;13001;51.968;5.918;2023-05-08T05:25:30;344.20;;;321.63;;
22768;SDS011;13001;51.968;5.918;2023-05-08T05:27:57;417.53;;;388.30;;
22768;SDS011;13001;51.968;5.918;2023-05-08T05:30:24;517.92;;;478.98;;
22768;SDS011;13001;51.968;5.918;2023-05-08T05:32:52;615.90;;;566.55;;
22768;SDS011;13001;51.968;5.918;2023-05-08T05:35:18;727.73;;;670.17;;
22768;SDS011;13001;51.968;5.918;2023-05-08T05:37:46;773.10;;;712.48;;
22768;SDS011;13001;51.968;5.918;2023-05-08T05:40:13;753.67;;;695.05;;
22768;SDS011;13001;51.968;5.918;2023-05-08T05:42:41;819.28;;;754.75;;
22768;SDS011;13001;51.968;5.918;2023-05-08T05:45:12;840.75;;;772.75;;
22768;SDS011;13001;51.968;5.918;2023-05-08T05:47:43;757.23;;;696.40;;
22768;SDS011;13001;51.968;5.918;2023-05-08T05:50:14;724.73;;;670.10;;
22768;SDS011;13001;51.968;5.918;2023-05-08T05:52:43;760.52;;;703.33;;
22768;SDS011;13001;51.968;5.918;2023-05-08T05:55:11;773.35;;;713.25;;
22768;SDS011;13001;51.968;5.918;2023-05-08T05:57:39;810.85;;;746.67;;
22768;SDS011;13001;51.968;5.918;2023-05-08T06:00:07;854.25;;;785.55;;
22768;SDS011;13001;51.968;5.918;2023-05-08T06:02:36;898.25;;;823.75;;
22768;SDS011;13001;51.968;5.918;2023-05-08T06:05:04;890.92;;;817.92;;
22768;SDS011;13001;51.968;5.918;2023-05-08T06:07:31;971.30;;;889.90;;
22768;SDS011;13001;51.968;5.918;2023-05-08T06:09:59;988.42;;;904.50;;
22768;SDS011;13001;51.968;5.918;2023-05-08T06:12:27;946.00;;;867.15;;
22768;SDS011;13001;51.968;5.918;2023-05-08T06:14:54;993.73;;;908.87;;
22768;SDS011;13001;51.968;5.918;2023-05-08T06:17:21;901.67;;;827.67;;
22768;SDS011;13001;51.968;5.918;2023-05-08T06:19:49;820.17;;;754.87;;
22768;SDS011;13001;51.968;5.918;2023-05-08T06:22:18;730.15;;;675.42;;
22768;SDS011;13001;51.968;5.918;2023-05-08T06:24:47;686.88;;;637.92;;
22768;SDS011;13001;51.968;5.918;2023-05-08T06:27:14;752.62;;;695.57;;
22768;SDS011;13001;51.968;5.918;2023-05-08T06:29:42;999.47;;;913.75;;
22768;SDS011;13001;51.968;5.918;2023-05-08T06:32:09;997.30;;;913.12;;
22768;SDS011;13001;51.968;5.918;2023-05-08T06:34:36;966.60;;;887.33;;
22768;SDS011;13001;51.968;5.918;2023-05-08T06:37:03;973.60;;;893.30;;
22768;SDS011;13001;51.968;5.918;2023-05-08T06:39:31;956.95;;;877.88;;
22768;SDS011;13001;51.968;5.918;2023-05-08T06:41:58;924.42;;;848.05;;
22768;SDS011;13001;51.968;5.918;2023-05-08T06:44:25;848.95;;;780.42;;
22768;SDS011;13001;51.968;5.918;2023-05-08T06:46:53;697.05;;;645.42;;
22768;SDS011;13001;51.968;5.918;2023-05-08T06:49:20;679.08;;;630.55;;
22768;SDS011;13001;51.968;5.918;2023-05-08T06:51:48;693.58;;;643.52;;
22768;SDS011;13001;51.968;5.918;2023-05-08T06:54:15;711.63;;;659.70;;
22768;SDS011;13001;51.968;5.918;2023-05-08T06:56:44;731.25;;;676.98;;
22768;SDS011;13001;51.968;5.918;2023-05-08T06:59:11;721.67;;;668.37;;
22768;SDS011;13001;51.968;5.918;2023-05-08T07:01:39;709.00;;;656.85;;
22768;SDS011;13001;51.968;5.918;2023-05-08T07:04:06;680.67;;;631.83;;
22768;SDS011;13001;51.968;5.918;2023-05-08T07:06:34;615.02;;;571.05;;
22768;SDS011;13001;51.968;5.918;2023-05-08T07:09:01;842.92;;;777.02;;
22768;SDS011;13001;51.968;5.918;2023-05-08T07:11:28;857.95;;;789.45;;
22768;SDS011;13001;51.968;5.918;2023-05-08T07:13:56;777.65;;;718.42;;
22768;SDS011;13001;51.968;5.918;2023-05-08T07:16:23;714.90;;;662.67;;
22768;SDS011;13001;51.968;5.918;2023-05-08T07:18:50;808.47;;;747.10;;
22768;SDS011;13001;51.968;5.918;2023-05-08T07:21:17;775.72;;;715.45;;
22768;SDS011;13001;51.968;5.918;2023-05-08T07:23:46;666.62;;;613.70;;
22768;SDS011;13001;51.968;5.918;2023-05-08T07:26:15;722.92;;;665.77;;
22768;SDS011;13001;51.968;5.918;2023-05-08T07:28:42;683.65;;;630.05;;
22768;SDS011;13001;51.968;5.918;2023-05-08T07:31:10;699.50;;;642.60;;
22768;SDS011;13001;51.968;5.918;2023-05-08T07:33:37;602.05;;;560.37;;
22768;SDS011;13001;51.968;5.918;2023-05-08T07:36:04;492.05;;;459.95;;
22768;SDS011;13001;51.968;5.918;2023-05-08T07:38:31;430.70;;;403.87;;
22768;SDS011;13001;51.968;5.918;2023-05-08T07:40:59;564.13;;;527.52;;
22768;SDS011;13001;51.968;5.918;2023-05-08T07:43:27;572.55;;;534.90;;
22768;SDS011;13001;51.968;5.918;2023-05-08T07:45:54;655.63;;;608.60;;
22768;SDS011;13001;51.968;5.918;2023-05-08T07:48:21;794.17;;;733.07;;
22768;SDS011;13001;51.968;5.918;2023-05-08T07:50:49;978.27;;;897.72;;
22768;SDS011;13001;51.968;5.918;2023-05-08T07:53:16;997.72;;;914.08;;
22768;SDS011;13001;51.968;5.918;2023-05-08T07:55:43;870.48;;;796.75;;
22768;SDS011;13001;51.968;5.918;2023-05-08T07:58:11;727.35;;;671.80;;
22768;SDS011;13001;51.968;5.918;2023-05-08T08:00:38;730.13;;;676.45;;
22768;SDS011;13001;51.968;5.918;2023-05-08T08:03:06;788.20;;;726.82;;
22768;SDS011;13001;51.968;5.918;2023-05-08T08:05:33;685.95;;;634.08;;
22768;SDS011;13001;51.968;5.918;2023-05-08T08:08:00;564.58;;;522.50;;
22768;SDS011;13001;51.968;5.918;2023-05-08T08:10:28;491.68;;;454.20;;
22768;SDS011;13001;51.968;5.918;2023-05-08T08:12:55;563.52;;;521.03;;
22768;SDS011;13001;51.968;5.918;2023-05-08T08:15:22;526.92;;;488.22;;
22768;SDS011;13001;51.968;5.918;2023-05-08T08:17:49;546.15;;;505.50;;
22768;SDS011;13001;51.968;5.918;2023-05-08T08:20:17;593.40;;;549.08;;
22768;SDS011;13001;51.968;5.918;2023-05-08T08:22:44;585.20;;;541.92;;
22768;SDS011;13001;51.968;5.918;2023-05-08T08:25:11;653.02;;;602.65;;
22768;SDS011;13001;51.968;5.918;2023-05-08T08:27:39;680.63;;;627.73;;
22768;SDS011;13001;51.968;5.918;2023-05-08T08:30:06;649.55;;;599.80;;
22768;SDS011;13001;51.968;5.918;2023-05-08T08:32:34;650.58;;;600.67;;
22768;SDS011;13001;51.968;5.918;2023-05-08T08:35:01;785.35;;;725.42;;
22768;SDS011;13001;51.968;5.918;2023-05-08T08:37:28;825.22;;;760.97;;
22768;SDS011;13001;51.968;5.918;2023-05-08T08:39:56;824.73;;;758.77;;
22768;SDS011;13001;51.968;5.918;2023-05-08T08:42:23;786.15;;;726.27;;
22768;SDS011;13001;51.968;5.918;2023-05-08T08:44:50;700.95;;;647.60;;
22768;SDS011;13001;51.968;5.918;2023-05-08T08:47:17;695.73;;;642.20;;
22768;SDS011;13001;51.968;5.918;2023-05-08T08:49:46;665.40;;;614.37;;
22768;SDS011;13001;51.968;5.918;2023-05-08T08:52:30;608.38;;;561.45;;
22768;SDS011;13001;51.968;5.918;2023-05-08T08:54:59;567.95;;;525.45;;
22768;SDS011;13001;51.968;5.918;2023-05-08T08:57:27;648.85;;;593.67;;
22768;SDS011;13001;51.968;5.918;2023-05-08T08:59:55;741.03;;;682.27;;
22768;SDS011;13001;51.968;5.918;2023-05-08T09:02:24;601.50;;;556.37;;
22768;SDS011;13001;51.968;5.918;2023-05-08T09:04:52;540.83;;;501.03;;
22768;SDS011;13001;51.968;5.918;2023-05-08T09:07:20;459.15;;;427.67;;
22768;SDS011;13001;51.968;5.918;2023-05-08T09:09:48;491.57;;;460.10;;
22768;SDS011;13001;51.968;5.918;2023-05-08T09:12:16;701.02;;;648.00;;
22768;SDS011;13001;51.968;5.918;2023-05-08T09:14:44;709.10;;;655.77;;
22768;SDS011;13001;51.968;5.918;2023-05-08T09:17:13;572.50;;;533.33;;
22768;SDS011;13001;51.968;5.918;2023-05-08T09:19:40;521.03;;;484.95;;
22768;SDS011;13001;51.968;5.918;2023-05-08T09:22:08;547.87;;;509.35;;
22768;SDS011;13001;51.968;5.918;2023-05-08T09:24:54;601.55;;;558.95;;
22768;SDS011;13001;51.968;5.918;2023-05-08T09:27:25;606.73;;;564.70;;
22768;SDS011;13001;51.968;5.918;2023-05-08T09:32:28;609.48;;;566.60;;
22768;SDS011;13001;51.968;5.918;2023-05-08T09:34:56;633.48;;;588.90;;
22768;SDS011;13001;51.968;5.918;2023-05-08T09:37:25;651.25;;;605.75;;
22768;SDS011;13001;51.968;5.918;2023-05-08T09:39:52;569.75;;;531.10;;
22768;SDS011;13001;51.968;5.918;2023-05-08T09:42:20;597.92;;;555.33;;
22768;SDS011;13001;51.968;5.918;2023-05-08T09:44:49;606.80;;;562.27;;
22768;SDS011;13001;51.968;5.918;2023-05-08T09:47:18;597.17;;;553.58;;
22768;SDS011;13001;51.968;5.918;2023-05-08T09:49:59;629.65;;;585.58;;
22768;SDS011;13001;51.968;5.918;2023-05-08T09:52:27;695.05;;;644.52;;
22768;SDS011;13001;51.968;5.918;2023-05-08T09:54:55;713.45;;;660.67;;
22768;SDS011;13001;51.968;5.918;2023-05-08T09:57:24;670.20;;;621.55;;
22768;SDS011;13001;51.968;5.918;2023-05-08T09:59:59;612.10;;;570.23;;
22768;SDS011;13001;51.968;5.918;2023-05-08T10:02:20;623.30;;;581.13;;
22768;SDS011;13001;51.968;5.918;2023-05-08T10:04:48;533.80;;;497.73;;
22768;SDS011;13001;51.968;5.918;2023-05-08T10:07:15;494.95;;;459.95;;
22768;SDS011;13001;51.968;5.918;2023-05-08T10:10:05;458.48;;;427.28;;
22768;SDS011;13001;51.968;5.918;2023-05-08T10:12:13;428.88;;;398.05;;
22768;SDS011;13001;51.968;5.918;2023-05-08T10:14:40;421.25;;;394.37;;
22768;SDS011;13001;51.968;5.918;2023-05-08T10:17:07;485.07;;;452.93;;
22768;SDS011;13001;51.968;5.918;2023-05-08T10:19:36;493.43;;;459.13;;
22768;SDS011;13001;51.968;5.918;2023-05-08T10:22:04;454.87;;;425.27;;
22768;SDS011;13001;51.968;5.918;2023-05-08T10:24:33;480.07;;;447.63;;
22768;SDS011;13001;51.968;5.918;2023-05-08T10:27:22;510.27;;;475.35;;
22768;SDS011;13001;51.968;5.918;2023-05-08T10:29:47;351.98;;;329.57;;
22768;SDS011;13001;51.968;5.918;2023-05-08T10:32:18;340.23;;;318.12;;
22768;SDS011;13001;51.968;5.918;2023-05-08T10:34:45;394.07;;;368.13;;
22768;SDS011;13001;51.968;5.918;2023-05-08T10:37:13;335.30;;;314.70;;
22768;SDS011;13001;51.968;5.918;2023-05-08T10:39:40;417.30;;;391.82;;
22768;SDS011;13001;51.968;5.918;2023-05-08T10:42:09;513.80;;;480.57;;
22768;SDS011;13001;51.968;5.918;2023-05-08T10:44:37;492.60;;;459.93;;
22768;SDS011;13001;51.968;5.918;2023-05-08T10:47:09;586.98;;;543.87;;
22768;SDS011;13001;51.968;5.918;2023-05-08T10:49:42;679.08;;;627.33;;
22768;SDS011;13001;51.968;5.918;2023-05-08T10:52:21;763.77;;;704.92;;
22768;SDS011;13001;51.968;5.918;2023-05-08T10:57:27;547.20;;;506.53;;
22768;SDS011;13001;51.968;5.918;2023-05-08T10:59:55;490.12;;;453.98;;
22768;SDS011;13001;51.968;5.918;2023-05-08T11:02:25;531.30;;;491.10;;
22768;SDS011;13001;51.968;5.918;2023-05-08T11:04:55;541.23;;;501.67;;
22768;SDS011;13001;51.968;5.918;2023-05-08T11:07:46;651.95;;;602.30;;
22768;SDS011;13001;51.968;5.918;2023-05-08T11:10:11;687.50;;;635.27;;
22768;SDS011;13001;51.968;5.918;2023-05-08T11:12:33;455.37;;;422.82;;
22768;SDS011;13001;51.968;5.918;2023-05-08T11:15:03;572.30;;;531.30;;
22768;SDS011;13001;51.968;5.918;2023-05-08T11:17:37;645.67;;;598.92;;
22768;SDS011;13001;51.968;5.918;2023-05-08T11:20:07;650.45;;;602.05;;
22768;SDS011;13001;51.968;5.918;2023-05-08T11:22:34;653.98;;;605.08;;
22768;SDS011;13001;51.968;5.918;2023-05-08T11:25:07;679.72;;;629.42;;
22768;SDS011;13001;51.968;5.918;2023-05-08T11:27:39;692.08;;;640.33;;
22768;SDS011;13001;51.968;5.918;2023-05-08T11:32:57;709.95;;;656.52;;
22768;SDS011;13001;51.968;5.918;2023-05-08T11:35:44;692.27;;;639.87;;
22768;SDS011;13001;51.968;5.918;2023-05-08T11:38:25;678.67;;;627.00;;
22768;SDS011;13001;51.968;5.918;2023-05-08T11:41:36;710.67;;;656.58;;
22768;SDS011;13001;51.968;5.918;2023-05-08T11:43:30;702.55;;;648.37;;
22768;SDS011;13001;51.968;5.918;2023-05-08T11:45:54;635.05;;;586.47;;
22768;SDS011;13001;51.968;5.918;2023-05-08T11:48:23;624.45;;;575.27;;
22768;SDS011;13001;51.968;5.918;2023-05-08T11:50:50;605.58;;;558.72;;
22768;SDS011;13001;51.968;5.918;2023-05-08T11:53:18;617.55;;;569.60;;
22768;SDS011;13001;51.968;5.918;2023-05-08T11:55:46;622.80;;;574.95;;
22768;SDS011;13001;51.968;5.918;2023-05-08T11:58:14;632.52;;;583.42;;
22768;SDS011;13001;51.968;5.918;2023-05-08T12:00:42;692.25;;;639.70;;
22768;SDS011;13001;51.968;5.918;2023-05-08T12:03:11;674.35;;;622.50;;
22768;SDS011;13001;51.968;5.918;2023-05-08T12:05:39;720.88;;;665.58;;
22768;SDS011;13001;51.968;5.918;2023-05-08T12:08:07;713.67;;;659.58;;
22768;SDS011;13001;51.968;5.918;2023-05-08T12:10:50;747.48;;;691.95;;
22768;SDS011;13001;51.968;5.918;2023-05-08T12:13:18;737.88;;;682.17;;
22768;SDS011;13001;51.968;5.918;2023-05-08T12:15:46;738.27;;;681.45;;
22768;SDS011;13001;51.968;5.918;2023-05-08T12:18:14;747.80;;;690.33;;
22768;SDS011;13001;51.968;5.918;2023-05-08T12:20:42;760.37;;;700.83;;
22768;SDS011;13001;51.968;5.918;2023-05-08T12:23:11;783.58;;;721.65;;
22768;SDS011;13001;51.968;5.918;2023-05-08T12:25:38;790.02;;;727.25;;
22768;SDS011;13001;51.968;5.918;2023-05-08T12:28:06;784.67;;;722.45;;
22768;SDS011;13001;51.968;5.918;2023-05-08T12:30:33;776.30;;;715.38;;
22768;SDS011;13001;51.968;5.918;2023-05-08T12:33:00;746.80;;;688.80;;
22768;SDS011;13001;51.968;5.918;2023-05-08T12:35:30;744.45;;;687.58;;
22768;SDS011;13001;51.968;5.918;2023-05-08T12:38:02;744.15;;;687.65;;
22768;SDS011;13001;51.968;5.918;2023-05-08T12:40:31;736.77;;;681.25;;
22768;SDS011;13001;51.968;5.918;2023-05-08T12:43:03;775.27;;;716.62;;
22768;SDS011;13001;51.968;5.918;2023-05-08T12:45:32;740.12;;;684.10;;
22768;SDS011;13001;51.968;5.918;2023-05-08T12:48:04;762.25;;;704.38;;
22768;SDS011;13001;51.968;5.918;2023-05-08T12:50:32;757.90;;;700.02;;
22768;SDS011;13001;51.968;5.918;2023-05-08T12:53:01;762.92;;;704.15;;
22768;SDS011;13001;51.968;5.918;2023-05-08T12:55:30;752.08;;;694.80;;
22768;SDS011;13001;51.968;5.918;2023-05-08T12:58:04;761.80;;;703.17;;
22768;SDS011;13001;51.968;5.918;2023-05-08T13:03:07;752.65;;;694.75;;
22768;SDS011;13001;51.968;5.918;2023-05-08T13:05:39;777.02;;;718.05;;
22768;SDS011;13001;51.968;5.918;2023-05-08T13:08:06;759.60;;;702.78;;
22768;SDS011;13001;51.968;5.918;2023-05-08T13:10:43;780.05;;;720.60;;
22768;SDS011;13001;51.968;5.918;2023-05-08T13:13:12;756.08;;;696.98;;
22768;SDS011;13001;51.968;5.918;2023-05-08T13:15:39;772.80;;;712.10;;
22768;SDS011;13001;51.968;5.918;2023-05-08T13:18:06;762.67;;;703.33;;
22768;SDS011;13001;51.968;5.918;2023-05-08T13:20:34;786.30;;;723.33;;
22768;SDS011;13001;51.968;5.918;2023-05-08T13:23:02;757.40;;;698.10;;
22768;SDS011;13001;51.968;5.918;2023-05-08T13:25:31;776.33;;;715.92;;
22768;SDS011;13001;51.968;5.918;2023-05-08T13:27:58;786.45;;;724.52;;
22768;SDS011;13001;51.968;5.918;2023-05-08T13:30:26;800.10;;;737.05;;
22768;SDS011;13001;51.968;5.918;2023-05-08T13:32:53;817.22;;;752.15;;
22768;SDS011;13001;51.968;5.918;2023-05-08T13:35:21;825.55;;;759.35;;
22768;SDS011;13001;51.968;5.918;2023-05-08T13:37:48;825.53;;;759.80;;
22768;SDS011;13001;51.968;5.918;2023-05-08T13:40:16;862.25;;;790.20;;
22768;SDS011;13001;51.968;5.918;2023-05-08T13:42:43;874.70;;;801.62;;
22768;SDS011;13001;51.968;5.918;2023-05-08T13:45:11;849.45;;;780.58;;
22768;SDS011;13001;51.968;5.918;2023-05-08T13:47:41;883.25;;;809.73;;
22768;SDS011;13001;51.968;5.918;2023-05-08T13:50:11;924.62;;;846.35;;
22768;SDS011;13001;51.968;5.918;2023-05-08T13:52:38;916.85;;;839.60;;
22768;SDS011;13001;51.968;5.918;2023-05-08T13:55:06;907.20;;;830.65;;
22768;SDS011;13001;51.968;5.918;2023-05-08T13:57:34;902.30;;;827.05;;
22768;SDS011;13001;51.968;5.918;2023-05-08T14:00:02;866.35;;;796.08;;
22768;SDS011;13001;51.968;5.918;2023-05-08T14:02:30;837.63;;;771.55;;
22768;SDS011;13001;51.968;5.918;2023-05-08T14:05:00;822.33;;;758.25;;
22768;SDS011;13001;51.968;5.918;2023-05-08T14:07:27;813.50;;;749.90;;
22768;SDS011;13001;51.968;5.918;2023-05-08T14:09:55;816.42;;;752.88;;
22768;SDS011;13001;51.968;5.918;2023-05-08T14:12:22;790.02;;;729.60;;
22768;SDS011;13001;51.968;5.918;2023-05-08T14:14:50;759.05;;;701.35;;
22768;SDS011;13001;51.968;5.918;2023-05-08T14:17:17;734.17;;;677.52;;
22768;SDS011;13001;51.968;5.918;2023-05-08T14:19:44;716.77;;;662.40;;
22768;SDS011;13001;51.968;5.918;2023-05-08T14:22:11;691.83;;;640.00;;
22768;SDS011;13001;51.968;5.918;2023-05-08T14:24:39;706.40;;;652.67;;
22768;SDS011;13001;51.968;5.918;2023-05-08T14:27:06;681.23;;;628.02;;
22768;SDS011;13001;51.968;5.918;2023-05-08T14:29:33;662.33;;;611.88;;
22768;SDS011;13001;51.968;5.918;2023-05-08T14:32:01;662.45;;;612.60;;
22768;SDS011;13001;51.968;5.918;2023-05-08T14:34:28;678.90;;;626.85;;
22768;SDS011;13001;51.968;5.918;2023-05-08T14:36:55;670.10;;;618.60;;
22768;SDS011;13001;51.968;5.918;2023-05-08T14:39:22;671.35;;;619.55;;